Terminal Aerodrome Forecast
Issued by NWS

Home | Current Version | Previous Version | Text Only | Print | Product List | Glossary On
Versions: 1 2 3 4 5 6 7 8 9 10 11 12 13 14 15 16 17
000
FTUS44 KCRP 211125
TAFALI
TAF
KALI 211125Z 2112/2212 VRB05KT P6SM OVC150
     FM211500 10008KT P6SM VCSH BKN035 OVC070
      TEMPO 2116/2120 -TSRA BKN020CB OVC070
     FM212200 12014KT P6SM VCTS BKN040CB
     FM220300 12008KT P6SM VCSH BKN025
      TEMPO 2209/2212 3SM -SHRA BR BKN015 OVC150=

USA.gov is the U.S. government's official web portal to all federal, state and local government web resources and services.